Buoy 54955

sailwx.info

Track history (hours):
 
Tides and Currents Weather Stations Pressure Air Temp Water Temp Dewpoint Dewpoint Depression Visibility Wind Speed Wind Dir Waves Ship Positions

Luruyu54955

Last reported at 2017-May-25 07:00 UTC. Time now 2017-May-25 08:36 UTC.
Position S 34°08' W 150°11'.

Length 27 m.

Type: Fishing. MMSI: 412330945.

Barometer 1020.6 mb
Water temperature 19.5 ° C

Date/timePositionNaut miles runAvg speedWind from/ knotsBaromVisibWave heightAir tempDewpointWater temp
2017-May-25 07:00S 34°08' W 150°11'1 0.8 1020.6 19.5
2017-May-25 06:00S 34°08' W 150°10'0 0.0 1019.8 19.5
2017-May-25 05:00S 34°08' W 150°10'2 1.8 1020.3 19.5
2017-May-25 04:00S 34°06' W 150°10'1 1.2 1020.1 19.5
2017-May-25 03:00S 34°05' W 150°10'1 0.8 1019.9 19.6
2017-May-25 02:00S 34°05' W 150°10'2 1.9 1021.2 19.6
2017-May-25 01:00S 34°04' W 150°09'1 0.8 1021.2 19.6
2017-May-25 00:00S 34°04' W 150°10'0 0.0 1021.8 19.5
2017-May-24 23:00S 34°04' W 150°10'5 1.3 1021.6 19.5
2017-May-24 19:00S 34°01' W 150°05'0 0.0 1024.0 19.5
2017-May-24 18:00S 34°01' W 150°05'0 0.5 1024.7 19.5
2017-May-24 17:00S 34°01' W 150°04'0 0.5 1023.7 19.4
2017-May-24 16:00S 34°01' W 150°04'0 0.5 1023.0 19.4
2017-May-24 15:00S 34°01' W 150°03'0 0.5 1022.8 19.5
2017-May-24 14:00S 34°01' W 150°04'0 0.0 1022.1 19.4
2017-May-24 13:00S 34°01' W 150°04'0 0.0 1022.4 19.5
2017-May-24 12:00S 34°01' W 150°04'0 0.0 1022.8 19.5
2017-May-24 11:00S 34°01' W 150°04'1 0.3 1022.8 19.5
2017-May-24 09:00S 34°00' W 150°04'0 0.5 1023.4 19.5
2017-May-24 08:00S 34°00' W 150°03'0 0.0 1023.1 19.5
2017-May-24 07:00S 34°00' W 150°03'0 0.0 1023.2 19.5
2017-May-24 06:00S 34°00' W 150°03'1 0.6 1023.0 19.5
2017-May-24 05:00S 33°59' W 150°03'0 0.5 1022.3 19.5
2017-May-24 04:00S 33°59' W 150°04'0 0.5 1021.5 19.5
2017-May-24 03:00S 33°59' W 150°03'2 1.6 1020.7 19.5
2017-May-24 02:00S 34°01' W 150°04'1 1.3 1020.0 19.5
2017-May-24 01:00S 33°59' W 150°04'0 0.0 1019.8 19.5
2017-May-24 00:00S 33°59' W 150°04'2 0.4 1019.7 19.5
2017-May-23 19:00S 34°01' W 150°02'1 0.6 1019.0 19.4
2017-May-23 18:00S 34°01' W 150°02'0 0.5 1018.4 19.5
2017-May-23 17:00S 34°01' W 150°01'1 0.6 1017.5 19.5
2017-May-23 16:00S 34°02' W 150°01'0 0.0 1016.6 19.5
2017-May-23 15:00S 34°02' W 150°01'1 0.8 1015.9 19.6
2017-May-23 14:00S 34°02' W 150°02'1 0.8 1015.2 19.6
2017-May-23 13:00S 34°03' W 150°02'0 0.0 1014.8 19.6
2017-May-23 12:00S 34°03' W 150°02'0 0.0 1014.3 19.7
2017-May-23 11:00S 34°03' W 150°02'3 0.6 1014.4 19.7
2017-May-23 06:00S 34°02' W 150°06'0 0.5 1013.8 19.8
2017-May-23 05:00S 34°02' W 150°07'1 1.0 1013.4 19.8
2017-May-23 04:00S 34°02' W 150°05'1 1.0 1013.0 19.8
2017-May-23 03:00S 34°02' W 150°07'0 0.5 1012.7 19.8
2017-May-23 02:00S 34°02' W 150°07'0 0.0 1012.4 19.8
2017-May-23 01:00S 34°02' W 150°07'2 2.5 1012.1 19.8
2017-May-23 00:00S 34°00' W 150°08'1 0.1 1012.0 19.8
2017-May-22 20:00S 34°01' W 150°08'0 0.0 1013.4 19.8
2017-May-22 19:00S 34°01' W 150°08'0 0.5 1013.1 19.8
2017-May-22 18:00S 34°01' W 150°08'0 0.0 1012.5 19.8
2017-May-22 17:00S 34°01' W 150°08'0 0.0 1011.8 19.8
2017-May-22 16:00S 34°01' W 150°08'0 0.5 1011.2 19.8
2017-May-22 15:00S 34°01' W 150°08'1 1.0 1011.2 19.8
2017-May-22 14:00S 34°01' W 150°09'2 2.0 1010.7 19.8
2017-May-22 13:00S 34°01' W 150°11'0 0.0 1010.5 19.8
2017-May-22 12:00S 34°01' W 150°11'0 0.0 1010.5 19.8
2017-May-22 11:00S 34°01' W 150°11'4 1.4 1010.1 19.8
2017-May-22 08:00S 33°56' W 150°13'2 1.8 1010.6 19.8
2017-May-22 07:00S 33°55' W 150°13'1 1.2 1011.8 19.8
2017-May-22 06:00S 33°53' W 150°13'3 3.0 1012.4 19.8
2017-May-22 05:00S 33°50' W 150°12'3 2.6 1012.7 19.8
2017-May-22 04:00S 33°48' W 150°11'0 0.0 1013.7 19.8
2017-May-22 03:00S 33°48' W 150°11'2 2.5 1014.4 19.8
2017-May-22 02:00S 33°46' W 150°10'0 0.0 1014.9 19.8
2017-May-22 01:00S 33°46' W 150°10'0 0.0 1015.6 19.8
2017-May-22 00:00S 33°46' W 150°10'6 1.3 1016.3 19.9
2017-May-21 19:00S 33°40' W 150°08'2 2.5 1020.4 20.0
2017-May-21 18:00S 33°37' W 150°08'0 0.0 1020.4 19.9
2017-May-21 17:00S 33°37' W 150°08'1 0.8 1020.6 19.8
2017-May-21 16:00S 33°37' W 150°08'2 1.9 1020.7 19.8
2017-May-21 15:00S 33°35' W 150°07'1 0.6 1020.5 19.8
2017-May-21 14:00S 33°34' W 150°07'0 0.0 1021.2 19.9
2017-May-21 13:00S 33°34' W 150°07'0 0.0 1021.5 20.0
2017-May-21 11:00S 33°34' W 150°07'2 2.5 1022.5 20.0
2017-May-21 10:00S 33°32' W 150°07'0 0.0 1023.2 20.0
2017-May-21 09:00S 33°32' W 150°07'2 2.3 1023.4 19.9
2017-May-21 08:00S 33°30' W 150°05'1 0.8 1023.9 19.8
2017-May-21 07:00S 33°29' W 150°05'1 0.6 1024.3 19.7
2017-May-21 06:00S 33°29' W 150°05'1 1.2 1024.4 19.7
2017-May-21 05:00S 33°28' W 150°05'1 1.2 1024.7 19.7
2017-May-21 04:00S 33°26' W 150°05'1 0.8 1024.9 19.8
2017-May-21 03:00S 33°26' W 150°05'1 0.8 1024.6 19.8
2017-May-21 02:00S 33°25' W 150°04'1 1.2 1024.3 19.8
2017-May-21 01:00S 33°24' W 150°04'6 1.0 1024.3 19.8
2017-May-20 19:00S 33°19' W 149°59'0 0.0 1026.8 20.0
2017-May-20 18:00S 33°19' W 149°59'1 0.6 1026.8 20.1
2017-May-20 17:00S 33°19' W 149°59'1 1.2 1026.6 20.1
2017-May-20 16:00S 33°18' W 149°58'1 0.6 1026.5 20.0
2017-May-20 15:00S 33°17' W 149°58'0 0.0 1026.6 19.9
2017-May-20 14:00S 33°17' W 149°58'1 0.6 1027.1 20.0
2017-May-20 13:00S 33°17' W 149°58'2 2.1 1027.2 20.1
2017-May-20 12:00S 33°15' W 149°59'0 0.0 1027.2 20.1
2017-May-20 11:00S 33°15' W 149°59'2 1.9 1027.6 20.2
2017-May-20 10:00S 33°13' W 149°59'1 0.7 1027.4 20.3
2017-May-20 08:00S 33°12' W 149°58'0 0.0 1027.7 20.3
2017-May-20 07:00S 33°12' W 149°58'2 1.9 1027.7 20.3
2017-May-20 06:00S 33°10' W 149°58'0 0.0 1027.7 20.3
2017-May-20 05:00S 33°10' W 149°58'2 1.6 1027.7 20.3
2017-May-20 04:00S 33°09' W 149°56'1 0.5 1027.4 20.3
2017-May-20 03:00S 33°09' W 149°56'2 1.6 1027.1 20.3
2017-May-20 02:00S 33°08' W 149°55'0 0.0 1026.9 20.3
2017-May-20 01:00S 33°08' W 149°55'0 0.0 1027.1 20.3
2017-May-20 00:00S 33°08' W 149°55'3 0.6 1027.6 20.2
2017-May-19 19:00S 33°07' W 149°51'1 1.0 1029.0 20.3
2017-May-19 18:00S 33°07' W 149°50'1 0.5 1028.7 20.2
2017-May-19 17:00S 33°07' W 149°50'2 1.6 1028.3 20.2
2017-May-19 16:00S 33°06' W 149°49'0 0.0 1027.8 20.3
2017-May-19 15:00S 33°06' W 149°49'2 0.9 1027.6 20.4
2017-May-19 13:00S 33°04' W 149°50'1 1.2 1027.5 20.4
2017-May-19 12:00S 33°03' W 149°50'1 0.8 1028.0 20.4
2017-May-19 11:00S 33°04' W 149°49'2 2.1 1027.9 20.4
2017-May-19 10:00S 33°02' W 149°48'1 0.4 1028.1 20.4
2017-May-19 08:00S 33°01' W 149°47'1 0.8 1028.4 20.4
2017-May-19 07:00S 33°01' W 149°47'1 1.0 1028.4 20.4
2017-May-19 06:00S 33°01' W 149°46'2 1.5 1028.7 20.4
2017-May-19 05:00S 33°01' W 149°44'0 0.0 1028.6 20.4
2017-May-19 04:00S 33°01' W 149°44'1 0.8 1028.2 20.4
2017-May-19 03:00S 33°00' W 149°43'0 0.0 1027.9 20.4
2017-May-19 02:00S 33°00' W 149°43'0 0.0 1027.8 20.4
2017-May-19 01:00S 33°00' W 149°43'2 0.8 1027.6 20.4
2017-May-18 23:00S 33°00' W 149°41'2 0.5 1027.6 20.4
2017-May-18 19:00S 33°01' W 149°40'1 0.5 1028.5 20.4
2017-May-18 18:00S 33°01' W 149°39'0 0.0 1028.2 20.4
2017-May-18 17:00S 33°01' W 149°39'0 0.0 1027.4 20.4
2017-May-18 16:00S 33°01' W 149°39'0 0.0 1026.7 20.4
2017-May-18 15:00S 33°01' W 149°39'0 0.0 1026.1 20.4
2017-May-18 14:00S 33°01' W 149°39'0 0.0 1026.0 20.4
2017-May-18 13:00S 33°01' W 149°39'0 0.0 1025.8 20.4
2017-May-18 12:00S 33°01' W 149°39'1 0.6 1026.0 20.4
2017-May-18 10:00S 33°02' W 149°38'1 0.4 1025.9 20.4
2017-May-18 07:00S 33°02' W 149°37'2 2.0 1025.3 20.3
2017-May-18 06:00S 33°02' W 149°34'1 1.3 1024.9 20.2
2017-May-18 05:00S 33°04' W 149°35'1 0.5 1024.6 20.2
2017-May-18 04:00S 33°04' W 149°34'2 1.6 1024.0 20.3
2017-May-18 03:00S 33°05' W 149°33'1 0.5 1023.5 20.3
2017-May-18 02:00S 33°05' W 149°34'1 0.6 1023.1 20.3
2017-May-18 01:00S 33°05' W 149°34'0 0.0 1022.5 20.3
2017-May-18 00:00S 33°05' W 149°34'0 0.0 1022.0 20.4
2017-May-17 23:00S 33°05' W 149°34'3 0.8 1022.0 20.4
2017-May-17 19:00S 33°08' W 149°33'2 2.1 1021.9 20.4
2017-May-17 18:00S 33°10' W 149°34'1 0.3 1021.1 20.4
2017-May-17 16:00S 33°10' W 149°34'2 1.6 1019.4 20.3
2017-May-17 15:00S 33°11' W 149°35'0 0.0 1018.5 20.3
2017-May-17 14:00S 33°11' W 149°35'0 0.0 1017.9 20.2
2017-May-17 13:00S 33°11' W 149°35'1 0.5 1017.4 20.2
2017-May-17 12:00S 33°11' W 149°36'2 0.5 1017.2 20.2
2017-May-17 08:00S 33°13' W 149°36'1 0.5 1015.3 20.1
2017-May-17 07:00S 33°13' W 149°35'1 1.3 1015.0 20.1
2017-May-17 06:00S 33°14' W 149°35'1 1.2 1014.1 20.1
2017-May-17 05:00S 33°14' W 149°36'2 2.1 1013.4 20.2
2017-May-17 04:00S 33°16' W 149°35'0 0.0 1012.5 20.2
2017-May-17 03:00S 33°16' W 149°35'1 1.2 1011.7 20.2
2017-May-17 02:00S 33°17' W 149°36'1 0.8 1010.9 20.2
2017-May-17 01:00S 33°17' W 149°37'3 3.2 1010.2 20.3
2017-May-17 00:00S 33°19' W 149°40'0 0.0 1009.4 20.3
2017-May-16 23:00S 33°19' W 149°40'1 0.2 1009.2 20.3
2017-May-16 19:00S 33°18' W 149°41'1 0.5 1008.9 20.3
2017-May-16 18:00S 33°18' W 149°41'1 0.8 1008.5 20.3
2017-May-16 17:00S 33°17' W 149°42'0 0.0 1008.2 20.3
2017-May-16 16:00S 33°17' W 149°42'0 0.0 1007.6 20.3
2017-May-16 15:00S 33°17' W 149°42'1 0.8 1007.4 20.2
2017-May-16 14:00S 33°17' W 149°43'1 0.5 1007.2 20.2
2017-May-16 13:00S 33°17' W 149°43'1 0.6 1007.5 20.3
2017-May-16 12:00S 33°16' W 149°43'0 0.0 1007.7 20.3
2017-May-16 11:00S 33°16' W 149°43'1 0.3 1008.0 20.3
2017-May-16 09:00S 33°16' W 149°43'1 0.4 1008.2 20.3
2017-May-16 07:00S 33°15' W 149°44'1 0.5 1008.1 20.3
2017-May-16 06:00S 33°15' W 149°43'1 1.2 1008.0 20.3
2017-May-16 05:00S 33°16' W 149°42'0 0.0 1007.8 20.4
2017-May-16 04:00S 33°16' W 149°42'1 0.6 1007.4 20.4
2017-May-16 03:00S 33°16' W 149°42'1 0.8 1006.9 20.4
2017-May-16 02:00S 33°17' W 149°43'1 0.5 1006.4 20.4
2017-May-16 00:00S 33°17' W 149°44'1 0.2 1006.3 20.4
2017-May-15 19:00S 33°16' W 149°44'0 0.0 1008.4 20.4
2017-May-15 18:00S 33°16' W 149°44'1 1.3 1008.8 20.3
2017-May-15 17:00S 33°15' W 149°44'1 0.6 1009.6 20.3
2017-May-15 16:00S 33°14' W 149°44'2 1.9 1010.4 20.3
2017-May-15 15:00S 33°13' W 149°43'0 0.0 1011.1 20.3
2017-May-15 14:00S 33°13' W 149°43'0 0.0 1011.0 20.3
2017-May-15 13:00S 33°13' W 149°43'1 0.6 1012.1 20.4
2017-May-15 12:00S 33°12' W 149°43'0 0.0 1012.7 20.4
2017-May-15 11:00S 33°12' W 149°43'1 0.4 1013.5 20.4
2017-May-15 08:00S 33°11' W 149°43'0 0.0 1015.6 20.5
2017-May-15 07:00S 33°11' W 149°43'   1016.3 20.5
Track history (hours):
 
Tides and Currents Weather Stations Pressure Air Temp Water Temp Dewpoint Dewpoint Depression Visibility Wind Speed Wind Dir Waves Ship Positions

Luruyu54955

Last reported at 2017-May-25 07:00 UTC. Time now 2017-May-25 08:36 UTC.
Position S 34°08' W 150°11'.

Length 27 m.

Type: Fishing. MMSI: 412330945.

Barometer 1020.6 mb
Water temperature 19.5 ° C

Date/timePositionNaut miles runAvg speedWind from/ knotsBaromVisibWave heightAir tempDewpointWater temp
2017-May-25 07:00S 34°08' W 150°11'1 0.8 1020.6 19.5
2017-May-25 06:00S 34°08' W 150°10'0 0.0 1019.8 19.5
2017-May-25 05:00S 34°08' W 150°10'2 1.8 1020.3 19.5
2017-May-25 04:00S 34°06' W 150°10'1 1.2 1020.1 19.5
2017-May-25 03:00S 34°05' W 150°10'1 0.8 1019.9 19.6
2017-May-25 02:00S 34°05' W 150°10'2 1.9 1021.2 19.6
2017-May-25 01:00S 34°04' W 150°09'1 0.8 1021.2 19.6
2017-May-25 00:00S 34°04' W 150°10'0 0.0 1021.8 19.5
2017-May-24 23:00S 34°04' W 150°10'5 1.3 1021.6 19.5
2017-May-24 19:00S 34°01' W 150°05'0 0.0 1024.0 19.5
2017-May-24 18:00S 34°01' W 150°05'0 0.5 1024.7 19.5
2017-May-24 17:00S 34°01' W 150°04'0 0.5 1023.7 19.4
2017-May-24 16:00S 34°01' W 150°04'0 0.5 1023.0 19.4
2017-May-24 15:00S 34°01' W 150°03'0 0.5 1022.8 19.5
2017-May-24 14:00S 34°01' W 150°04'0 0.0 1022.1 19.4
2017-May-24 13:00S 34°01' W 150°04'0 0.0 1022.4 19.5
2017-May-24 12:00S 34°01' W 150°04'0 0.0 1022.8 19.5
2017-May-24 11:00S 34°01' W 150°04'1 0.3 1022.8 19.5
2017-May-24 09:00S 34°00' W 150°04'0 0.5 1023.4 19.5
2017-May-24 08:00S 34°00' W 150°03'0 0.0 1023.1 19.5
2017-May-24 07:00S 34°00' W 150°03'0 0.0 1023.2 19.5
2017-May-24 06:00S 34°00' W 150°03'1 0.6 1023.0 19.5
2017-May-24 05:00S 33°59' W 150°03'0 0.5 1022.3 19.5
2017-May-24 04:00S 33°59' W 150°04'0 0.5 1021.5 19.5
2017-May-24 03:00S 33°59' W 150°03'2 1.6 1020.7 19.5
2017-May-24 02:00S 34°01' W 150°04'1 1.3 1020.0 19.5
2017-May-24 01:00S 33°59' W 150°04'0 0.0 1019.8 19.5
2017-May-24 00:00S 33°59' W 150°04'2 0.4 1019.7 19.5
2017-May-23 19:00S 34°01' W 150°02'1 0.6 1019.0 19.4
2017-May-23 18:00S 34°01' W 150°02'0 0.5 1018.4 19.5
2017-May-23 17:00S 34°01' W 150°01'1 0.6 1017.5 19.5
2017-May-23 16:00S 34°02' W 150°01'0 0.0 1016.6 19.5
2017-May-23 15:00S 34°02' W 150°01'1 0.8 1015.9 19.6
2017-May-23 14:00S 34°02' W 150°02'1 0.8 1015.2 19.6
2017-May-23 13:00S 34°03' W 150°02'0 0.0 1014.8 19.6
2017-May-23 12:00S 34°03' W 150°02'0 0.0 1014.3 19.7
2017-May-23 11:00S 34°03' W 150°02'3 0.6 1014.4 19.7
2017-May-23 06:00S 34°02' W 150°06'0 0.5 1013.8 19.8
2017-May-23 05:00S 34°02' W 150°07'1 1.0 1013.4 19.8
2017-May-23 04:00S 34°02' W 150°05'1 1.0 1013.0 19.8
2017-May-23 03:00S 34°02' W 150°07'0 0.5 1012.7 19.8
2017-May-23 02:00S 34°02' W 150°07'0 0.0 1012.4 19.8
2017-May-23 01:00S 34°02' W 150°07'2 2.5 1012.1 19.8
2017-May-23 00:00S 34°00' W 150°08'1 0.1 1012.0 19.8
2017-May-22 20:00S 34°01' W 150°08'0 0.0 1013.4 19.8
2017-May-22 19:00S 34°01' W 150°08'0 0.5 1013.1 19.8
2017-May-22 18:00S 34°01' W 150°08'0 0.0 1012.5 19.8
2017-May-22 17:00S 34°01' W 150°08'0 0.0 1011.8 19.8
2017-May-22 16:00S 34°01' W 150°08'0 0.5 1011.2 19.8
2017-May-22 15:00S 34°01' W 150°08'1 1.0 1011.2 19.8
2017-May-22 14:00S 34°01' W 150°09'2 2.0 1010.7 19.8
2017-May-22 13:00S 34°01' W 150°11'0 0.0 1010.5 19.8
2017-May-22 12:00S 34°01' W 150°11'0 0.0 1010.5 19.8
2017-May-22 11:00S 34°01' W 150°11'4 1.4 1010.1 19.8
2017-May-22 08:00S 33°56' W 150°13'2 1.8 1010.6 19.8
2017-May-22 07:00S 33°55' W 150°13'1 1.2 1011.8 19.8
2017-May-22 06:00S 33°53' W 150°13'3 3.0 1012.4 19.8
2017-May-22 05:00S 33°50' W 150°12'3 2.6 1012.7 19.8
2017-May-22 04:00S 33°48' W 150°11'0 0.0 1013.7 19.8
2017-May-22 03:00S 33°48' W 150°11'2 2.5 1014.4 19.8
2017-May-22 02:00S 33°46' W 150°10'0 0.0 1014.9 19.8
2017-May-22 01:00S 33°46' W 150°10'0 0.0 1015.6 19.8
2017-May-22 00:00S 33°46' W 150°10'6 1.3 1016.3 19.9
2017-May-21 19:00S 33°40' W 150°08'2 2.5 1020.4 20.0
2017-May-21 18:00S 33°37' W 150°08'0 0.0 1020.4 19.9
2017-May-21 17:00S 33°37' W 150°08'1 0.8 1020.6 19.8
2017-May-21 16:00S 33°37' W 150°08'2 1.9 1020.7 19.8
2017-May-21 15:00S 33°35' W 150°07'1 0.6 1020.5 19.8
2017-May-21 14:00S 33°34' W 150°07'0 0.0 1021.2 19.9
2017-May-21 13:00S 33°34' W 150°07'0 0.0 1021.5 20.0
2017-May-21 11:00S 33°34' W 150°07'2 2.5 1022.5 20.0
2017-May-21 10:00S 33°32' W 150°07'0 0.0 1023.2 20.0
2017-May-21 09:00S 33°32' W 150°07'2 2.3 1023.4 19.9
2017-May-21 08:00S 33°30' W 150°05'1 0.8 1023.9 19.8
2017-May-21 07:00S 33°29' W 150°05'1 0.6 1024.3 19.7
2017-May-21 06:00S 33°29' W 150°05'1 1.2 1024.4 19.7
2017-May-21 05:00S 33°28' W 150°05'1 1.2 1024.7 19.7
2017-May-21 04:00S 33°26' W 150°05'1 0.8 1024.9 19.8
2017-May-21 03:00S 33°26' W 150°05'1 0.8 1024.6 19.8
2017-May-21 02:00S 33°25' W 150°04'1 1.2 1024.3 19.8
2017-May-21 01:00S 33°24' W 150°04'6 1.0 1024.3 19.8
2017-May-20 19:00S 33°19' W 149°59'0 0.0 1026.8 20.0
2017-May-20 18:00S 33°19' W 149°59'1 0.6 1026.8 20.1
2017-May-20 17:00S 33°19' W 149°59'1 1.2 1026.6 20.1
2017-May-20 16:00S 33°18' W 149°58'1 0.6 1026.5 20.0
2017-May-20 15:00S 33°17' W 149°58'0 0.0 1026.6 19.9
2017-May-20 14:00S 33°17' W 149°58'1 0.6 1027.1 20.0
2017-May-20 13:00S 33°17' W 149°58'2 2.1 1027.2 20.1
2017-May-20 12:00S 33°15' W 149°59'0 0.0 1027.2 20.1
2017-May-20 11:00S 33°15' W 149°59'2 1.9 1027.6 20.2
2017-May-20 10:00S 33°13' W 149°59'1 0.7 1027.4 20.3
2017-May-20 08:00S 33°12' W 149°58'0 0.0 1027.7 20.3
2017-May-20 07:00S 33°12' W 149°58'2 1.9 1027.7 20.3
2017-May-20 06:00S 33°10' W 149°58'0 0.0 1027.7 20.3
2017-May-20 05:00S 33°10' W 149°58'2 1.6 1027.7 20.3
2017-May-20 04:00S 33°09' W 149°56'1 0.5 1027.4 20.3
2017-May-20 03:00S 33°09' W 149°56'2 1.6 1027.1 20.3
2017-May-20 02:00S 33°08' W 149°55'0 0.0 1026.9 20.3
2017-May-20 01:00S 33°08' W 149°55'0 0.0 1027.1 20.3
2017-May-20 00:00S 33°08' W 149°55'3 0.6 1027.6 20.2
2017-May-19 19:00S 33°07' W 149°51'1 1.0 1029.0 20.3
2017-May-19 18:00S 33°07' W 149°50'1 0.5 1028.7 20.2
2017-May-19 17:00S 33°07' W 149°50'2 1.6 1028.3 20.2
2017-May-19 16:00S 33°06' W 149°49'0 0.0 1027.8 20.3
2017-May-19 15:00S 33°06' W 149°49'2 0.9 1027.6 20.4
2017-May-19 13:00S 33°04' W 149°50'1 1.2 1027.5 20.4
2017-May-19 12:00S 33°03' W 149°50'1 0.8 1028.0 20.4
2017-May-19 11:00S 33°04' W 149°49'2 2.1 1027.9 20.4
2017-May-19 10:00S 33°02' W 149°48'1 0.4 1028.1 20.4
2017-May-19 08:00S 33°01' W 149°47'1 0.8 1028.4 20.4
2017-May-19 07:00S 33°01' W 149°47'1 1.0 1028.4 20.4
2017-May-19 06:00S 33°01' W 149°46'2 1.5 1028.7 20.4
2017-May-19 05:00S 33°01' W 149°44'0 0.0 1028.6 20.4
2017-May-19 04:00S 33°01' W 149°44'1 0.8 1028.2 20.4
2017-May-19 03:00S 33°00' W 149°43'0 0.0 1027.9 20.4
2017-May-19 02:00S 33°00' W 149°43'0 0.0 1027.8 20.4
2017-May-19 01:00S 33°00' W 149°43'2 0.8 1027.6 20.4
2017-May-18 23:00S 33°00' W 149°41'2 0.5 1027.6 20.4
2017-May-18 19:00S 33°01' W 149°40'1 0.5 1028.5 20.4
2017-May-18 18:00S 33°01' W 149°39'0 0.0 1028.2 20.4
2017-May-18 17:00S 33°01' W 149°39'0 0.0 1027.4 20.4
2017-May-18 16:00S 33°01' W 149°39'0 0.0 1026.7 20.4
2017-May-18 15:00S 33°01' W 149°39'0 0.0 1026.1 20.4
2017-May-18 14:00S 33°01' W 149°39'0 0.0 1026.0 20.4
2017-May-18 13:00S 33°01' W 149°39'0 0.0 1025.8 20.4
2017-May-18 12:00S 33°01' W 149°39'1 0.6 1026.0 20.4
2017-May-18 10:00S 33°02' W 149°38'1 0.4 1025.9 20.4
2017-May-18 07:00S 33°02' W 149°37'2 2.0 1025.3 20.3
2017-May-18 06:00S 33°02' W 149°34'1 1.3 1024.9 20.2
2017-May-18 05:00S 33°04' W 149°35'1 0.5 1024.6 20.2
2017-May-18 04:00S 33°04' W 149°34'2 1.6 1024.0 20.3
2017-May-18 03:00S 33°05' W 149°33'1 0.5 1023.5 20.3
2017-May-18 02:00S 33°05' W 149°34'1 0.6 1023.1 20.3
2017-May-18 01:00S 33°05' W 149°34'0 0.0 1022.5 20.3
2017-May-18 00:00S 33°05' W 149°34'0 0.0 1022.0 20.4
2017-May-17 23:00S 33°05' W 149°34'3 0.8 1022.0 20.4
2017-May-17 19:00S 33°08' W 149°33'2 2.1 1021.9 20.4
2017-May-17 18:00S 33°10' W 149°34'1 0.3 1021.1 20.4
2017-May-17 16:00S 33°10' W 149°34'2 1.6 1019.4 20.3
2017-May-17 15:00S 33°11' W 149°35'0 0.0 1018.5 20.3
2017-May-17 14:00S 33°11' W 149°35'0 0.0 1017.9 20.2
2017-May-17 13:00S 33°11' W 149°35'1 0.5 1017.4 20.2
2017-May-17 12:00S 33°11' W 149°36'2 0.5 1017.2 20.2
2017-May-17 08:00S 33°13' W 149°36'1 0.5 1015.3 20.1
2017-May-17 07:00S 33°13' W 149°35'1 1.3 1015.0 20.1
2017-May-17 06:00S 33°14' W 149°35'1 1.2 1014.1 20.1
2017-May-17 05:00S 33°14' W 149°36'2 2.1 1013.4 20.2
2017-May-17 04:00S 33°16' W 149°35'0 0.0 1012.5 20.2
2017-May-17 03:00S 33°16' W 149°35'1 1.2 1011.7 20.2
2017-May-17 02:00S 33°17' W 149°36'1 0.8 1010.9 20.2
2017-May-17 01:00S 33°17' W 149°37'3 3.2 1010.2 20.3
2017-May-17 00:00S 33°19' W 149°40'0 0.0 1009.4 20.3
2017-May-16 23:00S 33°19' W 149°40'1 0.2 1009.2 20.3
2017-May-16 19:00S 33°18' W 149°41'1 0.5 1008.9 20.3
2017-May-16 18:00S 33°18' W 149°41'1 0.8 1008.5 20.3
2017-May-16 17:00S 33°17' W 149°42'0 0.0 1008.2 20.3
2017-May-16 16:00S 33°17' W 149°42'0 0.0 1007.6 20.3
2017-May-16 15:00S 33°17' W 149°42'1 0.8 1007.4 20.2
2017-May-16 14:00S 33°17' W 149°43'1 0.5 1007.2 20.2
2017-May-16 13:00S 33°17' W 149°43'1 0.6 1007.5 20.3
2017-May-16 12:00S 33°16' W 149°43'0 0.0 1007.7 20.3
2017-May-16 11:00S 33°16' W 149°43'1 0.3 1008.0 20.3
2017-May-16 09:00S 33°16' W 149°43'1 0.4 1008.2 20.3
2017-May-16 07:00S 33°15' W 149°44'1 0.5 1008.1 20.3
2017-May-16 06:00S 33°15' W 149°43'1 1.2 1008.0 20.3
2017-May-16 05:00S 33°16' W 149°42'0 0.0 1007.8 20.4
2017-May-16 04:00S 33°16' W 149°42'1 0.6 1007.4 20.4
2017-May-16 03:00S 33°16' W 149°42'1 0.8 1006.9 20.4
2017-May-16 02:00S 33°17' W 149°43'1 0.5 1006.4 20.4
2017-May-16 00:00S 33°17' W 149°44'1 0.2 1006.3 20.4
2017-May-15 19:00S 33°16' W 149°44'0 0.0 1008.4 20.4
2017-May-15 18:00S 33°16' W 149°44'1 1.3 1008.8 20.3
2017-May-15 17:00S 33°15' W 149°44'1 0.6 1009.6 20.3
2017-May-15 16:00S 33°14' W 149°44'2 1.9 1010.4 20.3
2017-May-15 15:00S 33°13' W 149°43'0 0.0 1011.1 20.3
2017-May-15 14:00S 33°13' W 149°43'0 0.0 1011.0 20.3
2017-May-15 13:00S 33°13' W 149°43'1 0.6 1012.1 20.4
2017-May-15 12:00S 33°12' W 149°43'0 0.0 1012.7 20.4
2017-May-15 11:00S 33°12' W 149°43'1 0.4 1013.5 20.4
2017-May-15 08:00S 33°11' W 149°43'0 0.0 1015.6 20.5
2017-May-15 07:00S 33°11' W 149°43'   1016.3 20.5

Dump ship's entire track history